sensor_id;sensor_type;location;lat;lon;timestamp;temperature;humidity
39825;DHT22;25503;52.532;13.640;2023-06-01T00:02:00;16.30;99.90
39825;DHT22;25503;52.532;13.640;2023-06-01T00:04:26;16.20;99.90
39825;DHT22;25503;52.532;13.640;2023-06-01T00:06:51;16.20;99.90
39825;DHT22;25503;52.532;13.640;2023-06-01T00:09:17;16.20;99.90
39825;DHT22;25503;52.532;13.640;2023-06-01T00:11:43;16.20;99.90
39825;DHT22;25503;52.532;13.640;2023-06-01T00:14:09;16.10;99.90
39825;DHT22;25503;52.532;13.640;2023-06-01T00:16:34;16.10;99.90
39825;DHT22;25503;52.532;13.640;2023-06-01T00:19:02;16.00;99.90
39825;DHT22;25503;52.532;13.640;2023-06-01T00:21:29;16.00;99.90
39825;DHT22;25503;52.532;13.640;2023-06-01T00:23:57;15.90;99.90
39825;DHT22;25503;52.532;13.640;2023-06-01T00:26:23;15.90;99.90
39825;DHT22;25503;52.532;13.640;2023-06-01T00:28:49;15.90;99.90
39825;DHT22;25503;52.532;13.640;2023-06-01T00:31:15;15.90;99.90
39825;DHT22;25503;52.532;13.640;2023-06-01T00:33:40;15.90;99.90
39825;DHT22;25503;52.532;13.640;2023-06-01T00:36:06;15.90;99.90
39825;DHT22;25503;52.532;13.640;2023-06-01T00:38:32;15.90;99.90
39825;DHT22;25503;52.532;13.640;2023-06-01T00:40:57;15.90;99.90
39825;DHT22;25503;52.532;13.640;2023-06-01T00:43:23;15.90;99.90
39825;DHT22;25503;52.532;13.640;2023-06-01T00:45:48;15.90;99.90
39825;DHT22;25503;52.532;13.640;2023-06-01T00:48:15;15.80;99.90
39825;DHT22;25503;52.532;13.640;2023-06-01T00:50:42;15.80;99.90
39825;DHT22;25503;52.532;13.640;2023-06-01T00:53:11;15.80;99.90
39825;DHT22;25503;52.532;13.640;2023-06-01T00:55:38;15.70;99.90
39825;DHT22;25503;52.532;13.640;2023-06-01T00:58:06;15.70;99.90
39825;DHT22;25503;52.532;13.640;2023-06-01T01:00:32;15.70;99.90
39825;DHT22;25503;52.532;13.640;2023-06-01T01:02:58;15.60;99.90
39825;DHT22;25503;52.532;13.640;2023-06-01T01:05:26;15.60;99.90
39825;DHT22;25503;52.532;13.640;2023-06-01T01:08:07;15.50;99.90
39825;DHT22;25503;52.532;13.640;2023-06-01T01:10:49;15.50;99.90
39825;DHT22;25503;52.532;13.640;2023-06-01T01:13:27;15.40;99.90
39825;DHT22;25503;52.532;13.640;2023-06-01T01:16:07;15.40;99.90
39825;DHT22;25503;52.532;13.640;2023-06-01T01:18:48;15.40;99.90
39825;DHT22;25503;52.532;13.640;2023-06-01T01:21:19;15.30;99.90
39825;DHT22;25503;52.532;13.640;2023-06-01T01:27:04;15.30;99.90
39825;DHT22;25503;52.532;13.640;2023-06-01T01:29:31;15.30;99.90
39825;DHT22;25503;52.532;13.640;2023-06-01T01:31:59;15.20;99.90
39825;DHT22;25503;52.532;13.640;2023-06-01T01:34:27;15.20;99.90
39825;DHT22;25503;52.532;13.640;2023-06-01T01:36:54;15.20;99.90
39825;DHT22;25503;52.532;13.640;2023-06-01T01:39:20;15.20;99.90
39825;DHT22;25503;52.532;13.640;2023-06-01T01:41:46;15.20;99.90
39825;DHT22;25503;52.532;13.640;2023-06-01T01:44:12;15.20;99.90
39825;DHT22;25503;52.532;13.640;2023-06-01T01:49:40;15.10;99.90
39825;DHT22;25503;52.532;13.640;2023-06-01T01:52:18;15.10;99.90
39825;DHT22;25503;52.532;13.640;2023-06-01T01:54:49;15.10;99.90
39825;DHT22;25503;52.532;13.640;2023-06-01T01:57:16;15.10;99.90
39825;DHT22;25503;52.532;13.640;2023-06-01T01:59:43;15.00;99.90
39825;DHT22;25503;52.532;13.640;2023-06-01T02:02:09;15.00;99.90
39825;DHT22;25503;52.532;13.640;2023-06-01T02:04:43;15.00;99.90
39825;DHT22;25503;52.532;13.640;2023-06-01T02:07:09;14.90;99.90
39825;DHT22;25503;52.532;13.640;2023-06-01T02:09:35;14.90;99.90
39825;DHT22;25503;52.532;13.640;2023-06-01T02:12:01;14.90;99.90
39825;DHT22;25503;52.532;13.640;2023-06-01T02:14:28;14.80;99.90
39825;DHT22;25503;52.532;13.640;2023-06-01T02:16:54;14.80;99.90
39825;DHT22;25503;52.532;13.640;2023-06-01T02:19:20;14.80;99.90
39825;DHT22;25503;52.532;13.640;2023-06-01T02:21:45;14.70;99.90
39825;DHT22;25503;52.532;13.640;2023-06-01T02:24:11;14.60;99.90
39825;DHT22;25503;52.532;13.640;2023-06-01T02:26:38;14.60;99.90
39825;DHT22;25503;52.532;13.640;2023-06-01T02:29:03;14.50;99.90
39825;DHT22;25503;52.532;13.640;2023-06-01T02:31:36;14.50;99.90
39825;DHT22;25503;52.532;13.640;2023-06-01T02:34:03;14.50;99.90
39825;DHT22;25503;52.532;13.640;2023-06-01T02:36:28;14.40;99.90
39825;DHT22;25503;52.532;13.640;2023-06-01T02:38:55;14.40;99.90
39825;DHT22;25503;52.532;13.640;2023-06-01T02:41:21;14.30;99.90
39825;DHT22;25503;52.532;13.640;2023-06-01T02:43:47;14.30;99.90
39825;DHT22;25503;52.532;13.640;2023-06-01T02:46:13;14.30;99.90
39825;DHT22;25503;52.532;13.640;2023-06-01T02:48:38;14.30;99.90
39825;DHT22;25503;52.532;13.640;2023-06-01T02:51:04;14.20;99.90
39825;DHT22;25503;52.532;13.640;2023-06-01T02:53:30;14.20;99.90
39825;DHT22;25503;52.532;13.640;2023-06-01T02:55:56;14.10;99.90
39825;DHT22;25503;52.532;13.640;2023-06-01T02:58:22;14.10;99.90
39825;DHT22;25503;52.532;13.640;2023-06-01T03:00:48;14.10;99.90
39825;DHT22;25503;52.532;13.640;2023-06-01T03:03:13;14.10;99.90
39825;DHT22;25503;52.532;13.640;2023-06-01T03:05:39;14.10;99.90
39825;DHT22;25503;52.532;13.640;2023-06-01T03:08:05;14.10;99.90
39825;DHT22;25503;52.532;13.640;2023-06-01T03:10:34;14.00;99.90
39825;DHT22;25503;52.532;13.640;2023-06-01T03:13:00;14.00;99.90
39825;DHT22;25503;52.532;13.640;2023-06-01T03:15:25;14.00;99.90
39825;DHT22;25503;52.532;13.640;2023-06-01T03:17:52;14.00;99.90
39825;DHT22;25503;52.532;13.640;2023-06-01T03:20:20;14.00;99.90
39825;DHT22;25503;52.532;13.640;2023-06-01T03:22:48;14.10;99.90
39825;DHT22;25503;52.532;13.640;2023-06-01T03:25:14;14.10;99.90
39825;DHT22;25503;52.532;13.640;2023-06-01T03:27:40;14.10;99.90
39825;DHT22;25503;52.532;13.640;2023-06-01T03:30:06;14.10;99.90
39825;DHT22;25503;52.532;13.640;2023-06-01T03:32:39;14.10;99.90
39825;DHT22;25503;52.532;13.640;2023-06-01T03:35:05;14.10;99.90
39825;DHT22;25503;52.532;13.640;2023-06-01T03:37:33;14.10;99.90
39825;DHT22;25503;52.532;13.640;2023-06-01T03:39:59;14.10;99.90
39825;DHT22;25503;52.532;13.640;2023-06-01T03:42:25;14.00;99.90
39825;DHT22;25503;52.532;13.640;2023-06-01T03:44:51;14.00;99.90
39825;DHT22;25503;52.532;13.640;2023-06-01T03:47:16;14.00;99.90
39825;DHT22;25503;52.532;13.640;2023-06-01T03:49:43;14.10;99.90
39825;DHT22;25503;52.532;13.640;2023-06-01T03:52:08;14.10;99.90
39825;DHT22;25503;52.532;13.640;2023-06-01T03:54:35;14.10;99.90
39825;DHT22;25503;52.532;13.640;2023-06-01T03:57:01;14.00;99.90
39825;DHT22;25503;52.532;13.640;2023-06-01T03:59:26;14.00;99.90
39825;DHT22;25503;52.532;13.640;2023-06-01T04:01:52;14.00;99.90
39825;DHT22;25503;52.532;13.640;2023-06-01T04:04:23;14.00;99.90
39825;DHT22;25503;52.532;13.640;2023-06-01T04:06:51;14.00;99.90
39825;DHT22;25503;52.532;13.640;2023-06-01T04:09:17;14.00;99.90
39825;DHT22;25503;52.532;13.640;2023-06-01T04:11:44;14.00;99.90
39825;DHT22;25503;52.532;13.640;2023-06-01T04:14:09;14.00;99.90
39825;DHT22;25503;52.532;13.640;2023-06-01T04:16:35;14.00;99.90
39825;DHT22;25503;52.532;13.640;2023-06-01T04:19:01;14.00;99.90
39825;DHT22;25503;52.532;13.640;2023-06-01T04:21:27;14.00;99.90
39825;DHT22;25503;52.532;13.640;2023-06-01T04:23:52;13.90;99.90
39825;DHT22;25503;52.532;13.640;2023-06-01T04:26:18;13.90;99.90
39825;DHT22;25503;52.532;13.640;2023-06-01T04:28:45;13.90;99.90
39825;DHT22;25503;52.532;13.640;2023-06-01T04:31:14;13.90;99.90
39825;DHT22;25503;52.532;13.640;2023-06-01T04:33:45;13.90;99.90
39825;DHT22;25503;52.532;13.640;2023-06-01T04:36:14;13.80;99.90
39825;DHT22;25503;52.532;13.640;2023-06-01T04:38:44;13.80;99.90
39825;DHT22;25503;52.532;13.640;2023-06-01T04:41:10;13.80;99.90
39825;DHT22;25503;52.532;13.640;2023-06-01T04:43:38;13.80;99.90
39825;DHT22;25503;52.532;13.640;2023-06-01T04:46:05;13.80;99.90
39825;DHT22;25503;52.532;13.640;2023-06-01T04:48:31;13.80;99.90
39825;DHT22;25503;52.532;13.640;2023-06-01T04:51:00;13.80;99.90
39825;DHT22;25503;52.532;13.640;2023-06-01T04:53:26;13.80;99.90
39825;DHT22;25503;52.532;13.640;2023-06-01T04:55:52;13.80;99.90
39825;DHT22;25503;52.532;13.640;2023-06-01T04:58:19;13.90;99.90
39825;DHT22;25503;52.532;13.640;2023-06-01T05:00:45;13.90;99.90
39825;DHT22;25503;52.532;13.640;2023-06-01T05:03:11;14.00;99.90
39825;DHT22;25503;52.532;13.640;2023-06-01T05:05:37;14.00;99.90
39825;DHT22;25503;52.532;13.640;2023-06-01T05:08:03;14.00;99.90
39825;DHT22;25503;52.532;13.640;2023-06-01T05:10:29;14.10;99.90
39825;DHT22;25503;52.532;13.640;2023-06-01T05:12:55;14.00;99.90
39825;DHT22;25503;52.532;13.640;2023-06-01T05:15:21;13.90;99.90
39825;DHT22;25503;52.532;13.640;2023-06-01T05:17:47;13.80;99.90
39825;DHT22;25503;52.532;13.640;2023-06-01T05:20:13;13.80;99.90
39825;DHT22;25503;52.532;13.640;2023-06-01T05:22:39;13.70;99.90
39825;DHT22;25503;52.532;13.640;2023-06-01T05:25:04;13.60;99.90
39825;DHT22;25503;52.532;13.640;2023-06-01T05:27:33;13.60;99.90
39825;DHT22;25503;52.532;13.640;2023-06-01T05:29:59;13.50;99.90
39825;DHT22;25503;52.532;13.640;2023-06-01T05:32:24;13.40;99.90
39825;DHT22;25503;52.532;13.640;2023-06-01T05:34:50;13.40;99.90
39825;DHT22;25503;52.532;13.640;2023-06-01T05:37:16;13.40;99.90
39825;DHT22;25503;52.532;13.640;2023-06-01T05:39:41;13.30;99.90
39825;DHT22;25503;52.532;13.640;2023-06-01T05:42:07;13.30;99.90
39825;DHT22;25503;52.532;13.640;2023-06-01T05:44:32;13.30;99.90
39825;DHT22;25503;52.532;13.640;2023-06-01T05:46:58;13.30;99.90
39825;DHT22;25503;52.532;13.640;2023-06-01T05:49:24;13.20;99.90
39825;DHT22;25503;52.532;13.640;2023-06-01T05:51:49;13.20;99.90
39825;DHT22;25503;52.532;13.640;2023-06-01T05:54:16;13.20;99.90
39825;DHT22;25503;52.532;13.640;2023-06-01T05:56:41;13.10;99.90
39825;DHT22;25503;52.532;13.640;2023-06-01T05:59:07;13.00;99.90
39825;DHT22;25503;52.532;13.640;2023-06-01T06:01:32;12.90;99.90
39825;DHT22;25503;52.532;13.640;2023-06-01T06:03:58;12.90;99.90
39825;DHT22;25503;52.532;13.640;2023-06-01T06:06:25;12.90;99.90
39825;DHT22;25503;52.532;13.640;2023-06-01T06:08:51;12.90;99.90
39825;DHT22;25503;52.532;13.640;2023-06-01T06:11:17;12.90;99.90
39825;DHT22;25503;52.532;13.640;2023-06-01T06:13:42;12.80;99.90
39825;DHT22;25503;52.532;13.640;2023-06-01T06:16:08;12.80;99.90
39825;DHT22;25503;52.532;13.640;2023-06-01T06:18:35;12.80;99.90
39825;DHT22;25503;52.532;13.640;2023-06-01T06:21:00;12.80;99.90
39825;DHT22;25503;52.532;13.640;2023-06-01T06:23:26;12.80;99.90
39825;DHT22;25503;52.532;13.640;2023-06-01T06:25:52;12.90;99.90
39825;DHT22;25503;52.532;13.640;2023-06-01T06:28:18;12.90;99.90
39825;DHT22;25503;52.532;13.640;2023-06-01T06:30:44;13.10;99.90
39825;DHT22;25503;52.532;13.640;2023-06-01T06:33:09;13.20;99.90
39825;DHT22;25503;52.532;13.640;2023-06-01T06:35:35;13.30;99.90
39825;DHT22;25503;52.532;13.640;2023-06-01T06:38:01;13.30;99.90
39825;DHT22;25503;52.532;13.640;2023-06-01T06:40:26;13.40;99.90
39825;DHT22;25503;52.532;13.640;2023-06-01T06:42:52;13.40;99.90
39825;DHT22;25503;52.532;13.640;2023-06-01T06:45:18;13.40;99.90
39825;DHT22;25503;52.532;13.640;2023-06-01T06:47:43;13.40;99.90
39825;DHT22;25503;52.532;13.640;2023-06-01T06:50:11;13.50;99.90
39825;DHT22;25503;52.532;13.640;2023-06-01T06:52:37;13.60;99.90
39825;DHT22;25503;52.532;13.640;2023-06-01T06:55:02;13.70;99.90
39825;DHT22;25503;52.532;13.640;2023-06-01T06:57:28;13.80;99.90
39825;DHT22;25503;52.532;13.640;2023-06-01T06:59:54;13.90;99.90
39825;DHT22;25503;52.532;13.640;2023-06-01T07:02:19;14.00;99.90
39825;DHT22;25503;52.532;13.640;2023-06-01T07:04:45;14.10;99.90
39825;DHT22;25503;52.532;13.640;2023-06-01T07:07:11;14.20;99.90
39825;DHT22;25503;52.532;13.640;2023-06-01T07:09:36;14.30;99.90
39825;DHT22;25503;52.532;13.640;2023-06-01T07:12:02;14.50;99.90
39825;DHT22;25503;52.532;13.640;2023-06-01T07:14:28;14.60;99.90
39825;DHT22;25503;52.532;13.640;2023-06-01T07:16:53;14.60;99.90
39825;DHT22;25503;52.532;13.640;2023-06-01T07:19:19;14.60;99.90
39825;DHT22;25503;52.532;13.640;2023-06-01T07:21:45;14.60;99.90
39825;DHT22;25503;52.532;13.640;2023-06-01T07:24:10;14.70;99.90
39825;DHT22;25503;52.532;13.640;2023-06-01T07:26:36;14.80;99.90
39825;DHT22;25503;52.532;13.640;2023-06-01T07:29:01;15.00;99.90
39825;DHT22;25503;52.532;13.640;2023-06-01T07:31:27;15.10;99.90
39825;DHT22;25503;52.532;13.640;2023-06-01T07:33:53;15.20;99.90
39825;DHT22;25503;52.532;13.640;2023-06-01T07:36:21;15.20;99.90
39825;DHT22;25503;52.532;13.640;2023-06-01T07:38:49;15.20;99.90
39825;DHT22;25503;52.532;13.640;2023-06-01T07:41:14;15.20;99.90
39825;DHT22;25503;52.532;13.640;2023-06-01T07:43:40;15.30;99.90
39825;DHT22;25503;52.532;13.640;2023-06-01T07:46:05;15.30;99.90
39825;DHT22;25503;52.532;13.640;2023-06-01T07:48:31;15.40;99.90
39825;DHT22;25503;52.532;13.640;2023-06-01T07:51:02;15.40;99.90
39825;DHT22;25503;52.532;13.640;2023-06-01T07:53:28;15.50;99.90
39825;DHT22;25503;52.532;13.640;2023-06-01T07:55:53;15.60;99.90
39825;DHT22;25503;52.532;13.640;2023-06-01T07:58:19;15.60;99.90
39825;DHT22;25503;52.532;13.640;2023-06-01T08:00:46;15.50;99.90
39825;DHT22;25503;52.532;13.640;2023-06-01T08:03:11;15.50;99.90
39825;DHT22;25503;52.532;13.640;2023-06-01T08:05:40;15.60;99.90
39825;DHT22;25503;52.532;13.640;2023-06-01T08:08:07;15.60;99.90
39825;DHT22;25503;52.532;13.640;2023-06-01T08:10:33;15.80;99.90
39825;DHT22;25503;52.532;13.640;2023-06-01T08:12:58;15.90;99.90
39825;DHT22;25503;52.532;13.640;2023-06-01T08:15:24;16.00;99.90
39825;DHT22;25503;52.532;13.640;2023-06-01T08:17:51;16.00;99.90
39825;DHT22;25503;52.532;13.640;2023-06-01T08:20:17;16.00;99.90
39825;DHT22;25503;52.532;13.640;2023-06-01T08:22:51;16.10;99.90
39825;DHT22;25503;52.532;13.640;2023-06-01T08:25:18;16.20;99.90
39825;DHT22;25503;52.532;13.640;2023-06-01T08:27:44;16.30;99.90
39825;DHT22;25503;52.532;13.640;2023-06-01T08:30:10;16.30;99.90
39825;DHT22;25503;52.532;13.640;2023-06-01T08:32:36;16.30;99.90
39825;DHT22;25503;52.532;13.640;2023-06-01T08:35:03;16.40;99.90
39825;DHT22;25503;52.532;13.640;2023-06-01T08:37:29;16.50;99.90
39825;DHT22;25503;52.532;13.640;2023-06-01T08:39:55;16.70;99.90
39825;DHT22;25503;52.532;13.640;2023-06-01T08:42:56;16.90;99.90
39825;DHT22;25503;52.532;13.640;2023-06-01T08:45:23;17.20;99.90
39825;DHT22;25503;52.532;13.640;2023-06-01T08:47:52;17.20;99.90
39825;DHT22;25503;52.532;13.640;2023-06-01T08:50:18;17.30;99.90
39825;DHT22;25503;52.532;13.640;2023-06-01T08:52:46;17.50;99.90
39825;DHT22;25503;52.532;13.640;2023-06-01T08:55:13;17.70;99.90
39825;DHT22;25503;52.532;13.640;2023-06-01T08:57:42;17.80;99.90
39825;DHT22;25503;52.532;13.640;2023-06-01T09:00:12;17.80;99.90
39825;DHT22;25503;52.532;13.640;2023-06-01T09:02:38;17.80;99.90
39825;DHT22;25503;52.532;13.640;2023-06-01T09:05:05;17.90;99.90
39825;DHT22;25503;52.532;13.640;2023-06-01T09:07:31;17.90;99.90
39825;DHT22;25503;52.532;13.640;2023-06-01T09:09:57;18.00;99.90
39825;DHT22;25503;52.532;13.640;2023-06-01T09:12:29;18.10;99.90
39825;DHT22;25503;52.532;13.640;2023-06-01T09:15:12;18.20;99.90
39825;DHT22;25503;52.532;13.640;2023-06-01T09:17:39;18.40;99.90
39825;DHT22;25503;52.532;13.640;2023-06-01T09:20:06;18.40;99.90
39825;DHT22;25503;52.532;13.640;2023-06-01T09:22:42;18.60;99.90
39825;DHT22;25503;52.532;13.640;2023-06-01T09:25:09;18.70;99.90
39825;DHT22;25503;52.532;13.640;2023-06-01T09:27:48;18.80;99.90
39825;DHT22;25503;52.532;13.640;2023-06-01T09:30:15;18.90;99.90
39825;DHT22;25503;52.532;13.640;2023-06-01T09:32:41;19.10;99.90
39825;DHT22;25503;52.532;13.640;2023-06-01T09:35:08;19.20;99.90
39825;DHT22;25503;52.532;13.640;2023-06-01T09:37:37;19.20;99.90
39825;DHT22;25503;52.532;13.640;2023-06-01T09:40:17;19.20;99.90
39825;DHT22;25503;52.532;13.640;2023-06-01T09:42:43;19.30;99.90
39825;DHT22;25503;52.532;13.640;2023-06-01T09:45:20;19.40;99.90
39825;DHT22;25503;52.532;13.640;2023-06-01T09:47:50;19.50;99.90
39825;DHT22;25503;52.532;13.640;2023-06-01T09:50:33;19.50;99.90
39825;DHT22;25503;52.532;13.640;2023-06-01T09:52:59;19.60;99.90
39825;DHT22;25503;52.532;13.640;2023-06-01T09:55:25;19.60;99.90
39825;DHT22;25503;52.532;13.640;2023-06-01T09:57:51;19.70;99.90
39825;DHT22;25503;52.532;13.640;2023-06-01T10:00:23;19.90;99.90
39825;DHT22;25503;52.532;13.640;2023-06-01T10:02:52;20.00;99.90
39825;DHT22;25503;52.532;13.640;2023-06-01T10:05:19;20.20;99.90
39825;DHT22;25503;52.532;13.640;2023-06-01T10:07:46;20.40;99.90
39825;DHT22;25503;52.532;13.640;2023-06-01T10:10:14;20.30;99.90
39825;DHT22;25503;52.532;13.640;2023-06-01T10:12:40;20.30;99.90
39825;DHT22;25503;52.532;13.640;2023-06-01T10:15:07;20.40;99.90
39825;DHT22;25503;52.532;13.640;2023-06-01T10:17:35;20.70;99.90
39825;DHT22;25503;52.532;13.640;2023-06-01T10:20:02;20.80;99.90
39825;DHT22;25503;52.532;13.640;2023-06-01T10:22:29;20.90;99.90
39825;DHT22;25503;52.532;13.640;2023-06-01T10:24:57;20.80;99.90
39825;DHT22;25503;52.532;13.640;2023-06-01T10:27:39;20.80;99.90
39825;DHT22;25503;52.532;13.640;2023-06-01T10:30:08;20.80;99.90
39825;DHT22;25503;52.532;13.640;2023-06-01T10:35:04;21.30;99.90
39825;DHT22;25503;52.532;13.640;2023-06-01T10:37:30;21.60;99.90
39825;DHT22;25503;52.532;13.640;2023-06-01T10:40:34;21.70;99.90
39825;DHT22;25503;52.532;13.640;2023-06-01T10:43:00;21.80;99.90
39825;DHT22;25503;52.532;13.640;2023-06-01T10:45:35;21.60;99.90
39825;DHT22;25503;52.532;13.640;2023-06-01T10:48:02;21.60;99.90
39825;DHT22;25503;52.532;13.640;2023-06-01T10:50:28;21.60;99.90
39825;DHT22;25503;52.532;13.640;2023-06-01T10:52:55;21.60;99.90
39825;DHT22;25503;52.532;13.640;2023-06-01T10:55:21;21.60;99.90
39825;DHT22;25503;52.532;13.640;2023-06-01T10:57:48;21.90;99.90
39825;DHT22;25503;52.532;13.640;2023-06-01T11:00:23;21.90;99.90
39825;DHT22;25503;52.532;13.640;2023-06-01T11:03:02;22.00;99.90
39825;DHT22;25503;52.532;13.640;2023-06-01T11:05:47;22.10;99.90
39825;DHT22;25503;52.532;13.640;2023-06-01T11:13:30;22.30;99.90
39825;DHT22;25503;52.532;13.640;2023-06-01T11:21:10;22.30;99.90
39825;DHT22;25503;52.532;13.640;2023-06-01T11:23:38;22.30;99.90
39825;DHT22;25503;52.532;13.640;2023-06-01T11:26:07;22.30;99.90
39825;DHT22;25503;52.532;13.640;2023-06-01T11:28:33;22.30;99.90
39825;DHT22;25503;52.532;13.640;2023-06-01T11:31:01;22.40;99.90
39825;DHT22;25503;52.532;13.640;2023-06-01T11:33:31;22.40;99.90
39825;DHT22;25503;52.532;13.640;2023-06-01T11:36:01;22.40;99.90
39825;DHT22;25503;52.532;13.640;2023-06-01T11:38:41;22.50;99.90
39825;DHT22;25503;52.532;13.640;2023-06-01T11:41:08;22.40;99.90
39825;DHT22;25503;52.532;13.640;2023-06-01T11:43:35;22.40;99.90
39825;DHT22;25503;52.532;13.640;2023-06-01T11:46:08;22.40;99.90
39825;DHT22;25503;52.532;13.640;2023-06-01T11:48:35;22.70;99.90
39825;DHT22;25503;52.532;13.640;2023-06-01T11:51:02;22.70;99.90
39825;DHT22;25503;52.532;13.640;2023-06-01T11:53:29;22.60;99.90
39825;DHT22;25503;52.532;13.640;2023-06-01T11:55:56;22.70;99.90
39825;DHT22;25503;52.532;13.640;2023-06-01T11:58:26;22.90;99.90
39825;DHT22;25503;52.532;13.640;2023-06-01T12:00:53;23.00;99.90
39825;DHT22;25503;52.532;13.640;2023-06-01T12:03:19;22.90;99.90
39825;DHT22;25503;52.532;13.640;2023-06-01T12:05:45;23.00;99.90
39825;DHT22;25503;52.532;13.640;2023-06-01T12:08:16;23.10;99.90
39825;DHT22;25503;52.532;13.640;2023-06-01T12:10:44;23.20;99.90
39825;DHT22;25503;52.532;13.640;2023-06-01T12:13:11;23.20;99.90
39825;DHT22;25503;52.532;13.640;2023-06-01T12:15:37;23.30;99.90
39825;DHT22;25503;52.532;13.640;2023-06-01T12:18:03;23.50;99.90
39825;DHT22;25503;52.532;13.640;2023-06-01T12:20:32;23.80;99.90
39825;DHT22;25503;52.532;13.640;2023-06-01T12:23:01;23.90;99.90
39825;DHT22;25503;52.532;13.640;2023-06-01T12:25:29;23.90;99.90
39825;DHT22;25503;52.532;13.640;2023-06-01T12:28:01;23.90;99.90
39825;DHT22;25503;52.532;13.640;2023-06-01T12:30:27;23.90;99.90
39825;DHT22;25503;52.532;13.640;2023-06-01T12:32:52;23.80;99.90
39825;DHT22;25503;52.532;13.640;2023-06-01T12:35:18;23.60;99.90
39825;DHT22;25503;52.532;13.640;2023-06-01T12:37:43;23.80;99.90
39825;DHT22;25503;52.532;13.640;2023-06-01T12:40:09;23.80;99.90
39825;DHT22;25503;52.532;13.640;2023-06-01T12:42:38;23.90;99.90
39825;DHT22;25503;52.532;13.640;2023-06-01T12:45:04;23.80;99.90
39825;DHT22;25503;52.532;13.640;2023-06-01T12:47:41;23.90;99.90
39825;DHT22;25503;52.532;13.640;2023-06-01T12:50:11;24.00;99.90
39825;DHT22;25503;52.532;13.640;2023-06-01T12:52:38;24.00;99.90
39825;DHT22;25503;52.532;13.640;2023-06-01T12:55:04;24.00;99.90
39825;DHT22;25503;52.532;13.640;2023-06-01T12:57:31;23.80;99.90
39825;DHT22;25503;52.532;13.640;2023-06-01T12:59:57;23.80;99.90
39825;DHT22;25503;52.532;13.640;2023-06-01T13:02:23;23.90;99.90
39825;DHT22;25503;52.532;13.640;2023-06-01T13:04:49;23.80;99.90
39825;DHT22;25503;52.532;13.640;2023-06-01T13:07:15;23.60;99.90
39825;DHT22;25503;52.532;13.640;2023-06-01T13:09:41;23.50;99.90
39825;DHT22;25503;52.532;13.640;2023-06-01T13:12:07;23.60;99.90
39825;DHT22;25503;52.532;13.640;2023-06-01T13:14:33;23.60;99.90
39825;DHT22;25503;52.532;13.640;2023-06-01T13:16:59;23.60;99.90
39825;DHT22;25503;52.532;13.640;2023-06-01T13:19:24;23.60;99.90
39825;DHT22;25503;52.532;13.640;2023-06-01T13:21:51;23.60;99.90
39825;DHT22;25503;52.532;13.640;2023-06-01T13:24:17;23.60;99.90
39825;DHT22;25503;52.532;13.640;2023-06-01T13:26:43;23.60;99.90
39825;DHT22;25503;52.532;13.640;2023-06-01T13:29:09;23.60;99.90
39825;DHT22;25503;52.532;13.640;2023-06-01T13:31:35;23.60;99.90
39825;DHT22;25503;52.532;13.640;2023-06-01T13:34:02;23.50;99.90
39825;DHT22;25503;52.532;13.640;2023-06-01T13:36:29;23.50;99.90
39825;DHT22;25503;52.532;13.640;2023-06-01T13:38:55;23.50;99.90
39825;DHT22;25503;52.532;13.640;2023-06-01T13:41:21;23.60;99.90
39825;DHT22;25503;52.532;13.640;2023-06-01T13:43:47;23.50;99.90
39825;DHT22;25503;52.532;13.640;2023-06-01T13:46:12;23.50;99.90
39825;DHT22;25503;52.532;13.640;2023-06-01T13:48:38;23.50;99.90
39825;DHT22;25503;52.532;13.640;2023-06-01T13:51:05;23.50;99.90
39825;DHT22;25503;52.532;13.640;2023-06-01T13:53:30;23.50;99.90
39825;DHT22;25503;52.532;13.640;2023-06-01T13:55:56;23.40;99.90
39825;DHT22;25503;52.532;13.640;2023-06-01T13:58:22;23.40;99.90
39825;DHT22;25503;52.532;13.640;2023-06-01T14:00:47;23.40;99.90
39825;DHT22;25503;52.532;13.640;2023-06-01T14:03:13;23.40;99.90
39825;DHT22;25503;52.532;13.640;2023-06-01T14:05:39;23.40;99.90
39825;DHT22;25503;52.532;13.640;2023-06-01T14:08:04;23.10;99.90
39825;DHT22;25503;52.532;13.640;2023-06-01T14:10:31;23.20;99.90
39825;DHT22;25503;52.532;13.640;2023-06-01T14:12:57;23.10;99.90
39825;DHT22;25503;52.532;13.640;2023-06-01T14:15:22;23.20;99.90
39825;DHT22;25503;52.532;13.640;2023-06-01T14:17:48;23.20;99.90
39825;DHT22;25503;52.532;13.640;2023-06-01T14:20:15;23.10;99.90
39825;DHT22;25503;52.532;13.640;2023-06-01T14:22:41;23.00;99.90
39825;DHT22;25503;52.532;13.640;2023-06-01T14:25:07;23.10;99.90
39825;DHT22;25503;52.532;13.640;2023-06-01T14:27:33;23.20;99.90
39825;DHT22;25503;52.532;13.640;2023-06-01T14:29:59;23.30;99.90
39825;DHT22;25503;52.532;13.640;2023-06-01T14:32:28;23.40;99.90
39825;DHT22;25503;52.532;13.640;2023-06-01T14:34:53;23.40;99.90
39825;DHT22;25503;52.532;13.640;2023-06-01T14:37:19;23.40;99.90
39825;DHT22;25503;52.532;13.640;2023-06-01T14:39:44;23.30;99.90
39825;DHT22;25503;52.532;13.640;2023-06-01T14:42:11;23.40;99.90
39825;DHT22;25503;52.532;13.640;2023-06-01T14:44:37;23.40;99.90
39825;DHT22;25503;52.532;13.640;2023-06-01T14:47:03;23.40;99.90
39825;DHT22;25503;52.532;13.640;2023-06-01T14:49:29;23.30;99.90
39825;DHT22;25503;52.532;13.640;2023-06-01T14:51:54;23.20;99.90
39825;DHT22;25503;52.532;13.640;2023-06-01T14:54:20;23.10;99.90
39825;DHT22;25503;52.532;13.640;2023-06-01T14:56:46;23.00;99.90
39825;DHT22;25503;52.532;13.640;2023-06-01T14:59:11;23.00;99.90
39825;DHT22;25503;52.532;13.640;2023-06-01T15:01:37;22.90;99.90
39825;DHT22;25503;52.532;13.640;2023-06-01T15:04:06;22.80;99.90
39825;DHT22;25503;52.532;13.640;2023-06-01T15:06:31;22.80;99.90
39825;DHT22;25503;52.532;13.640;2023-06-01T15:08:57;22.70;99.90
39825;DHT22;25503;52.532;13.640;2023-06-01T15:11:22;22.60;99.90
39825;DHT22;25503;52.532;13.640;2023-06-01T15:13:48;22.70;99.90
39825;DHT22;25503;52.532;13.640;2023-06-01T15:16:15;22.80;99.90
39825;DHT22;25503;52.532;13.640;2023-06-01T15:18:41;22.80;99.90
39825;DHT22;25503;52.532;13.640;2023-06-01T15:21:06;22.90;99.90
39825;DHT22;25503;52.532;13.640;2023-06-01T15:23:32;22.80;99.90
39825;DHT22;25503;52.532;13.640;2023-06-01T15:25:58;22.70;99.90
39825;DHT22;25503;52.532;13.640;2023-06-01T15:28:24;22.60;99.90
39825;DHT22;25503;52.532;13.640;2023-06-01T15:30:49;22.60;99.90
39825;DHT22;25503;52.532;13.640;2023-06-01T15:33:15;22.60;99.90
39825;DHT22;25503;52.532;13.640;2023-06-01T15:35:41;22.60;99.90